Time;durP1;ratioP1;P1;durP2;ratioP2;P2;SDS_P1;SDS_P2;PMS_P1;PMS_P2;Temp;Humidity;BMP_temperature;BMP_pressure;BME280_temperature;BME280_humidity;BME280_pressure;Samples;Min_cycle;Max_cycle;Signal;HPM_P1;HPM_P2
2022/03/18 00:00:25;;;;;;;15.60;6.25;;;0.40;99.90;;;;;;5050977;28;20036;-50
2022/03/18 00:02:53;;;;;;;12.73;6.05;;;0.30;99.90;;;;;;5069170;28;20028;-51
2022/03/18 00:05:19;;;;;;;23.88;6.55;;;0.30;99.90;;;;;;5069583;28;20269;-53
2022/03/18 00:07:45;;;;;;;14.40;5.85;;;0.30;99.90;;;;;;5069078;28;20066;-50
2022/03/18 00:10:13;;;;;;;19.45;6.15;;;0.30;99.90;;;;;;5069165;28;20170;-51
2022/03/18 00:12:39;;;;;;;11.40;5.13;;;0.30;99.90;;;;;;5069424;28;20032;-49
2022/03/18 00:15:07;;;;;;;10.52;5.28;;;0.30;99.90;;;;;;5069672;28;20523;-50
2022/03/18 00:17:33;;;;;;;14.00;5.25;;;0.30;99.90;;;;;;5069838;28;20638;-52
2022/03/18 00:19:58;;;;;;;8.65;4.63;;;0.30;99.90;;;;;;5069440;28;20032;-51
2022/03/18 00:22:24;;;;;;;11.20;4.70;;;0.30;99.90;;;;;;5069313;28;20078;-50
2022/03/18 00:24:49;;;;;;;13.68;5.53;;;0.30;99.90;;;;;;5068471;28;20056;-50
2022/03/18 00:27:15;;;;;;;13.80;5.30;;;0.30;99.90;;;;;;5068766;28;20107;-50
2022/03/18 00:29:41;;;;;;;10.85;5.30;;;0.30;99.90;;;;;;5068760;28;20109;-51
2022/03/18 00:32:07;;;;;;;12.43;4.72;;;0.30;99.90;;;;;;5068944;28;20070;-55
2022/03/18 00:34:33;;;;;;;11.60;4.22;;;0.20;99.90;;;;;;5068447;28;20036;-50
2022/03/18 00:36:58;;;;;;;9.52;4.85;;;0.20;99.90;;;;;;5050810;28;20564;-51
2022/03/18 00:39:24;;;;;;;13.15;3.88;;;0.20;99.90;;;;;;5069211;28;20103;-51
2022/03/18 00:41:50;;;;;;;8.27;3.83;;;0.20;99.90;;;;;;5068285;28;20056;-52
2022/03/18 00:44:15;;;;;;;11.77;5.13;;;0.10;99.90;;;;;;5068671;28;20031;-49
2022/03/18 00:46:42;;;;;;;12.63;4.55;;;0.10;99.90;;;;;;5069047;28;20501;-50
2022/03/18 00:52:04;;;;;;;15.02;4.72;;;0.10;99.90;;;;;;5068901;28;20074;-51
2022/03/18 00:54:35;;;;;;;15.63;4.07;;;0.10;99.90;;;;;;5069351;28;20037;-51
2022/03/18 00:57:01;;;;;;;10.82;5.13;;;0.00;99.90;;;;;;5069098;28;20055;-52
2022/03/18 00:59:27;;;;;;;7.78;4.07;;;0.00;99.90;;;;;;5068454;28;20496;-50
2022/03/18 01:01:53;;;;;;;11.15;4.93;;;-0.10;99.90;;;;;;5068365;28;20020;-51
2022/03/18 01:04:22;;;;;;;13.13;4.47;;;-0.10;99.90;;;;;;5068933;28;20030;-48
2022/03/18 01:06:49;;;;;;;12.82;3.88;;;-0.10;99.90;;;;;;5068887;28;20067;-51
2022/03/18 01:09:16;;;;;;;8.43;3.75;;;-0.20;99.90;;;;;;5068667;28;20086;-49
2022/03/18 01:11:42;;;;;;;10.18;3.97;;;-0.20;99.90;;;;;;5069227;28;20020;-49
2022/03/18 01:14:08;;;;;;;6.43;4.22;;;-0.20;99.90;;;;;;5068717;28;20500;-49
2022/03/18 01:16:34;;;;;;;10.43;4.63;;;-0.20;99.90;;;;;;5068641;28;20093;-49
2022/03/18 01:18:59;;;;;;;9.27;3.85;;;-0.30;99.90;;;;;;5068567;28;20028;-51
2022/03/18 01:21:25;;;;;;;9.55;3.72;;;-0.30;99.90;;;;;;5050765;28;20055;-51
2022/03/18 01:23:51;;;;;;;15.52;5.38;;;-0.30;99.90;;;;;;5068646;28;20024;-47
2022/03/18 01:26:17;;;;;;;7.93;4.25;;;-0.30;99.90;;;;;;5068362;28;20209;-49
2022/03/18 01:28:43;;;;;;;9.43;3.97;;;-0.40;99.90;;;;;;5068824;28;20027;-49
2022/03/18 01:31:08;;;;;;;14.77;4.47;;;-0.40;99.90;;;;;;5068496;28;20025;-52
2022/03/18 01:33:36;;;;;;;9.27;4.20;;;-0.40;99.90;;;;;;5068887;28;20072;-49
2022/03/18 01:36:02;;;;;;;10.48;4.45;;;-0.40;99.90;;;;;;5064953;28;20021;-48
2022/03/18 01:38:27;;;;;;;13.27;5.57;;;-0.40;99.90;;;;;;5072458;28;20021;-48
2022/03/18 01:40:54;;;;;;;9.10;5.40;;;-0.50;99.90;;;;;;5072267;28;20199;-52
2022/03/18 01:43:19;;;;;;;10.85;6.32;;;-0.50;99.90;;;;;;5072090;28;20097;-49
2022/03/18 01:45:45;;;;;;;9.38;5.38;;;-0.50;99.90;;;;;;5071662;28;20751;-49
2022/03/18 01:48:10;;;;;;;9.27;6.30;;;-0.50;99.90;;;;;;5071361;28;20028;-49
2022/03/18 01:50:40;;;;;;;8.80;4.93;;;-0.50;99.90;;;;;;5071527;28;20078;-49
2022/03/18 01:53:05;;;;;;;7.95;5.55;;;-0.60;99.90;;;;;;5071770;28;20033;-50
2022/03/18 01:55:31;;;;;;;10.93;6.32;;;-0.60;99.90;;;;;;5068716;28;20025;-48
2022/03/18 01:57:57;;;;;;;10.65;5.35;;;-0.60;99.90;;;;;;5069773;28;20028;-48
2022/03/18 02:00:22;;;;;;;9.05;5.50;;;-0.60;99.90;;;;;;5069181;28;20036;-48
2022/03/18 02:02:48;;;;;;;7.80;5.28;;;-0.60;99.90;;;;;;5068951;28;20052;-48
2022/03/18 02:05:14;;;;;;;8.43;4.82;;;-0.60;99.90;;;;;;5071063;28;20419;-49
2022/03/18 02:07:40;;;;;;;8.95;4.75;;;-0.60;99.90;;;;;;5070341;28;20102;-48
2022/03/18 02:10:06;;;;;;;10.65;5.15;;;-0.60;99.90;;;;;;5071951;28;20028;-47
2022/03/18 02:12:33;;;;;;;12.32;5.05;;;-0.60;99.90;;;;;;5071420;28;20028;-49
2022/03/18 02:14:58;;;;;;;15.27;5.53;;;-0.60;99.90;;;;;;5071522;28;20102;-49
2022/03/18 02:17:24;;;;;;;11.43;6.15;;;-0.60;99.90;;;;;;5071753;28;20024;-49
2022/03/18 02:19:50;;;;;;;12.98;5.07;;;-0.60;99.90;;;;;;5052906;28;20111;-47
2022/03/18 02:22:21;;;;;;;11.57;5.32;;;-0.60;99.90;;;;;;5070770;28;20519;-48
2022/03/18 02:24:49;;;;;;;11.70;5.35;;;-0.60;99.90;;;;;;5071321;28;20027;-47
2022/03/18 02:27:15;;;;;;;7.85;5.00;;;-0.60;99.90;;;;;;5071628;28;20021;-48
2022/03/18 02:29:42;;;;;;;9.18;6.07;;;-0.60;99.90;;;;;;5071224;28;20496;-48
2022/03/18 02:32:09;;;;;;;11.38;5.32;;;-0.60;99.90;;;;;;5070837;28;20075;-48
2022/03/18 02:34:36;;;;;;;11.73;5.25;;;-0.60;99.90;;;;;;5070649;28;20032;-47
2022/03/18 02:37:03;;;;;;;10.18;5.32;;;-0.60;99.90;;;;;;5071149;28;20032;-49
2022/03/18 02:39:28;;;;;;;11.50;5.82;;;-0.60;99.90;;;;;;5071020;28;20594;-47
2022/03/18 02:41:55;;;;;;;11.80;6.32;;;-0.60;99.90;;;;;;5070758;28;20036;-49
2022/03/18 02:44:21;;;;;;;11.95;5.57;;;-0.60;99.90;;;;;;5053165;28;20025;-48
2022/03/18 02:46:47;;;;;;;11.80;6.32;;;-0.60;99.90;;;;;;5071224;28;20081;-49
2022/03/18 02:49:13;;;;;;;11.70;5.63;;;-0.60;99.90;;;;;;5069981;28;20032;-47
2022/03/18 02:51:38;;;;;;;10.70;5.18;;;-0.70;99.90;;;;;;5069860;28;20497;-49
2022/03/18 02:54:08;;;;;;;12.75;5.68;;;-0.70;99.90;;;;;;5070501;28;20024;-49
2022/03/18 02:56:34;;;;;;;13.73;5.70;;;-0.70;99.90;;;;;;5050994;28;20040;-48
2022/03/18 02:59:01;;;;;;;8.88;5.28;;;-0.70;99.90;;;;;;5057483;28;20021;-49
2022/03/18 03:01:27;;;;;;;8.55;5.40;;;-0.70;99.90;;;;;;5052303;28;20176;-49
2022/03/18 03:03:57;;;;;;;11.15;5.68;;;-0.70;99.90;;;;;;5069895;28;20020;-49
2022/03/18 03:09:07;;;;;;;11.60;6.05;;;-0.80;99.90;;;;;;5070873;28;20197;-49
2022/03/18 03:11:34;;;;;;;12.05;6.65;;;-0.80;99.90;;;;;;5052220;28;20115;-48
2022/03/18 03:14:00;;;;;;;12.80;6.28;;;-0.80;99.90;;;;;;5052469;28;20028;-49
2022/03/18 03:16:26;;;;;;;8.73;5.13;;;-0.80;99.90;;;;;;5070730;28;20122;-49
2022/03/18 03:18:52;;;;;;;10.60;6.15;;;-0.80;99.90;;;;;;5070639;28;20063;-49
2022/03/18 03:21:18;;;;;;;14.52;6.20;;;-0.80;99.90;;;;;;5069846;28;20031;-48
2022/03/18 03:23:44;;;;;;;10.50;6.30;;;-0.80;99.90;;;;;;5069984;28;20017;-49
2022/03/18 03:26:10;;;;;;;11.15;6.20;;;-0.90;99.90;;;;;;5069622;28;20020;-49
2022/03/18 03:28:37;;;;;;;9.63;5.75;;;-0.90;99.90;;;;;;5070376;28;20028;-49
2022/03/18 03:31:03;;;;;;;9.77;5.57;;;-0.90;99.90;;;;;;5069886;28;20024;-48
2022/03/18 03:33:29;;;;;;;13.00;6.13;;;-0.90;99.90;;;;;;5069623;28;20040;-48
2022/03/18 03:35:55;;;;;;;7.55;5.47;;;-0.90;99.90;;;;;;5052240;28;20028;-49
2022/03/18 03:38:21;;;;;;;13.77;6.10;;;-0.90;99.90;;;;;;5070007;28;20663;-50
2022/03/18 03:40:48;;;;;;;11.90;6.70;;;-0.90;99.90;;;;;;5069985;28;20024;-49
2022/03/18 03:43:13;;;;;;;8.10;5.38;;;-1.00;99.90;;;;;;5069514;28;20024;-51
2022/03/18 03:45:40;;;;;;;11.73;5.95;;;-1.00;99.90;;;;;;5070110;28;20484;-51
2022/03/18 03:48:06;;;;;;;10.15;6.15;;;-1.00;99.90;;;;;;5070079;28;20404;-49
2022/03/18 03:50:32;;;;;;;13.13;6.57;;;-1.00;99.90;;;;;;5069591;28;20032;-49
2022/03/18 03:52:58;;;;;;;8.23;6.45;;;-1.00;99.90;;;;;;5068868;28;20055;-48
2022/03/18 03:55:23;;;;;;;12.57;7.55;;;-1.10;99.90;;;;;;5069417;28;20044;-50
2022/03/18 03:57:49;;;;;;;9.35;7.15;;;-1.00;99.90;;;;;;5069597;28;20096;-49
2022/03/18 04:00:15;;;;;;;14.77;6.43;;;-1.00;99.90;;;;;;5051355;28;20029;-50
2022/03/18 04:02:43;;;;;;;11.65;5.68;;;-1.00;99.90;;;;;;5051219;28;20565;-49
2022/03/18 04:05:09;;;;;;;9.82;5.55;;;-1.10;99.90;;;;;;5051309;28;20032;-50
2022/03/18 04:07:37;;;;;;;13.45;6.47;;;-1.10;99.90;;;;;;5093608;22;20052;-48
2022/03/18 04:10:04;;;;;;;10.45;6.45;;;-1.10;99.90;;;;;;5075881;28;20020;-48
2022/03/18 04:12:32;;;;;;;11.30;6.28;;;-1.10;99.90;;;;;;5079727;28;20055;-52
2022/03/18 04:14:58;;;;;;;15.65;5.90;;;-1.10;99.90;;;;;;5074214;28;20020;-47
2022/03/18 04:17:26;;;;;;;10.60;5.50;;;-1.10;99.90;;;;;;5087802;28;20028;-48
2022/03/18 04:19:54;;;;;;;10.90;6.57;;;-1.10;99.90;;;;;;5081087;28;20128;-48
2022/03/18 04:22:21;;;;;;;10.65;6.32;;;-1.10;99.90;;;;;;5060940;28;20028;-50
2022/03/18 04:24:47;;;;;;;17.02;6.18;;;-1.10;99.90;;;;;;5081376;28;20032;-48
2022/03/18 04:27:12;;;;;;;9.48;6.20;;;-1.10;99.90;;;;;;5068809;28;20510;-47
2022/03/18 04:29:38;;;;;;;13.45;6.30;;;-1.10;99.90;;;;;;5068724;28;20119;-51
2022/03/18 04:32:04;;;;;;;11.82;6.40;;;-1.10;99.90;;;;;;5068600;28;20089;-48
2022/03/18 04:34:29;;;;;;;9.40;6.32;;;-1.10;99.90;;;;;;5068864;28;20021;-50
2022/03/18 04:36:55;;;;;;;13.23;6.22;;;-1.10;99.90;;;;;;5049785;28;20124;-47
2022/03/18 04:39:20;;;;;;;9.10;6.25;;;-1.10;99.90;;;;;;5068763;28;20028;-48
2022/03/18 04:41:46;;;;;;;9.20;5.65;;;-1.10;99.90;;;;;;5068903;28;20023;-49
2022/03/18 04:44:12;;;;;;;11.70;5.78;;;-1.10;99.90;;;;;;5069015;28;20427;-49
2022/03/18 04:46:37;;;;;;;11.02;5.57;;;-1.10;99.90;;;;;;5069034;28;20048;-51
2022/03/18 04:49:03;;;;;;;11.13;5.78;;;-1.10;99.90;;;;;;5068649;28;20025;-46
2022/03/18 04:51:30;;;;;;;11.57;6.70;;;-1.10;99.90;;;;;;5068756;28;20028;-53
2022/03/18 04:53:57;;;;;;;10.38;6.05;;;-1.10;99.90;;;;;;5050605;28;20049;-47
2022/03/18 04:59:07;;;;;;;16.80;6.18;;;-1.20;99.90;;;;;;5068914;28;20035;-48
2022/03/18 05:01:32;;;;;;;11.25;5.97;;;-1.20;99.90;;;;;;5068549;28;20021;-48
2022/03/18 05:03:58;;;;;;;16.88;6.20;;;-1.20;99.90;;;;;;5068441;28;20099;-49
2022/03/18 05:06:24;;;;;;;13.77;5.53;;;-1.20;99.90;;;;;;5068535;28;20771;-49
2022/03/18 05:08:49;;;;;;;13.02;5.80;;;-1.20;99.90;;;;;;5068613;28;20028;-48
2022/03/18 05:11:15;;;;;;;12.27;6.53;;;-1.20;99.90;;;;;;5068399;28;20031;-50
2022/03/18 05:13:42;;;;;;;12.43;5.35;;;-1.20;99.90;;;;;;5072633;28;20467;-49
2022/03/18 05:16:07;;;;;;;15.68;6.43;;;-1.20;99.90;;;;;;5072342;28;20696;-51
2022/03/18 05:18:33;;;;;;;12.68;5.45;;;-1.20;99.90;;;;;;5072587;28;20066;-52
2022/03/18 05:20:59;;;;;;;11.55;5.25;;;-1.20;99.90;;;;;;5072667;28;20115;-52
2022/03/18 05:23:24;;;;;;;11.27;4.88;;;-1.20;99.90;;;;;;5072321;28;20400;-49
2022/03/18 05:25:50;;;;;;;11.13;5.32;;;-1.20;99.90;;;;;;5071514;28;20024;-50
2022/03/18 05:28:17;;;;;;;7.22;5.38;;;-1.20;99.90;;;;;;5054509;28;20027;-48
2022/03/18 05:30:43;;;;;;;11.90;5.05;;;-1.20;99.90;;;;;;5071819;28;20020;-47
2022/03/18 05:33:09;;;;;;;14.98;5.28;;;-1.20;99.90;;;;;;5071399;28;20033;-50
2022/03/18 05:35:34;;;;;;;11.73;5.60;;;-1.20;99.90;;;;;;5072336;28;20029;-49
2022/03/18 05:38:00;;;;;;;9.77;5.38;;;-1.20;99.90;;;;;;5072352;28;20029;-51
2022/03/18 05:40:25;;;;;;;11.93;5.95;;;-1.20;99.90;;;;;;5071627;28;20468;-50
2022/03/18 05:42:51;;;;;;;8.40;4.97;;;-1.20;99.90;;;;;;5071855;28;20438;-52
2022/03/18 05:45:17;;;;;;;8.90;5.32;;;-1.20;99.90;;;;;;5072039;28;20028;-46
2022/03/18 05:47:43;;;;;;;11.32;6.15;;;-1.20;99.90;;;;;;5071641;28;20054;-49
2022/03/18 05:50:09;;;;;;;9.48;5.38;;;-1.10;99.90;;;;;;5071840;28;20540;-49
2022/03/18 05:52:36;;;;;;;11.88;5.43;;;-1.10;99.90;;;;;;5071502;28;20024;-52
2022/03/18 05:55:03;;;;;;;9.90;4.97;;;-1.00;99.90;;;;;;5071849;28;20380;-49
2022/03/18 05:57:29;;;;;;;9.88;6.43;;;-1.00;99.90;;;;;;5071389;28;20033;-52
2022/03/18 05:59:56;;;;;;;14.73;5.97;;;-0.90;99.90;;;;;;5071607;28;20024;-49
2022/03/18 06:02:22;;;;;;;13.82;5.75;;;-0.90;99.90;;;;;;5071443;28;20029;-51
2022/03/18 06:04:48;;;;;;;11.73;6.32;;;-0.80;99.90;;;;;;5071563;28;20108;-48
2022/03/18 06:07:15;;;;;;;11.30;5.57;;;-0.80;99.90;;;;;;5071630;28;20016;-48
2022/03/18 06:12:25;;;;;;;10.00;6.53;;;-0.70;99.90;;;;;;5051585;28;20516;-52
2022/03/18 06:14:50;;;;;;;14.20;6.38;;;-0.60;99.90;;;;;;5070146;28;20041;-51
2022/03/18 06:17:16;;;;;;;13.55;5.43;;;-0.60;99.90;;;;;;5071256;28;20504;-51
2022/03/18 06:19:42;;;;;;;11.57;6.53;;;-0.50;99.90;;;;;;5071345;28;20029;-50
2022/03/18 06:22:08;;;;;;;10.60;5.78;;;-0.40;99.90;;;;;;5070866;28;20033;-50
2022/03/18 06:24:34;;;;;;;16.10;6.63;;;-0.40;99.90;;;;;;5071090;28;20074;-52
2022/03/18 06:27:01;;;;;;;12.60;6.28;;;-0.30;99.90;;;;;;5069911;28;20044;-49
2022/03/18 06:29:28;;;;;;;12.77;6.00;;;-0.20;99.90;;;;;;5071252;28;20020;-49
2022/03/18 06:31:53;;;;;;;16.38;6.53;;;-0.10;99.90;;;;;;5070583;28;20032;-51
2022/03/18 06:34:22;;;;;;;15.40;5.97;;;-0.10;99.90;;;;;;5071058;28;20404;-48
2022/03/18 06:36:52;;;;;;;13.02;6.10;;;0.00;99.90;;;;;;5052992;28;20028;-50
2022/03/18 06:39:22;;;;;;;9.52;5.22;;;0.10;99.90;;;;;;5064820;28;20039;-50
2022/03/18 06:41:48;;;;;;;16.58;6.38;;;0.10;99.90;;;;;;5070971;28;20025;-48
2022/03/18 06:44:14;;;;;;;13.73;6.75;;;0.20;99.90;;;;;;5070833;28;20021;-49
2022/03/18 06:46:40;;;;;;;9.10;5.72;;;0.30;99.90;;;;;;5070878;28;20025;-52
2022/03/18 06:49:07;;;;;;;14.18;6.30;;;0.40;99.90;;;;;;5070816;28;20028;-50
2022/03/18 06:51:33;;;;;;;15.45;6.13;;;0.40;99.90;;;;;;5070907;28;20024;-48
2022/03/18 06:53:59;;;;;;;12.60;7.25;;;0.50;99.90;;;;;;5070591;28;20072;-51
2022/03/18 06:56:27;;;;;;;14.38;7.25;;;0.60;99.90;;;;;;5070334;28;20871;-47
2022/03/18 06:58:53;;;;;;;9.63;5.85;;;0.60;99.90;;;;;;5070160;28;20408;-48
2022/03/18 07:01:21;;;;;;;14.00;7.00;;;0.60;99.90;;;;;;5070411;28;20025;-47
2022/03/18 07:03:49;;;;;;;15.25;7.18;;;0.70;99.90;;;;;;5070516;28;20025;-50
2022/03/18 07:06:15;;;;;;;12.10;7.10;;;0.70;99.90;;;;;;5070807;28;20107;-50
2022/03/18 07:08:40;;;;;;;14.18;7.60;;;0.70;99.90;;;;;;5070475;28;20111;-49
2022/03/18 07:11:07;;;;;;;12.00;7.28;;;0.80;99.90;;;;;;5070362;28;20124;-48
2022/03/18 07:13:33;;;;;;;15.20;7.63;;;0.80;99.90;;;;;;5070425;28;20037;-48
2022/03/18 07:17:54;;;;;;;10.57;7.10;;;0.80;99.90;;;;;;5069858;28;20056;-50
2022/03/18 07:18:45;;;;;;;9.77;7.45;;;0.80;99.90;;;;;;5069827;28;20394;-51
2022/03/18 07:21:10;;;;;;;11.82;7.78;;;0.90;99.90;;;;;;5070029;28;20043;-50
2022/03/18 07:23:36;;;;;;;14.82;8.20;;;1.00;99.90;;;;;;5070021;28;20020;-49
2022/03/18 07:26:01;;;;;;;15.07;7.78;;;1.10;99.90;;;;;;5070557;28;20420;-50
2022/03/18 07:28:27;;;;;;;11.55;8.13;;;1.20;99.90;;;;;;5070377;28;20455;-53
2022/03/18 07:30:53;;;;;;;13.98;8.27;;;1.40;99.90;;;;;;5070167;28;20021;-53
2022/03/18 07:33:18;;;;;;;14.52;8.20;;;1.50;99.90;;;;;;5051859;28;20067;-50
2022/03/18 07:35:44;;;;;;;15.77;9.32;;;1.60;99.90;;;;;;5069292;28;20099;-49
2022/03/18 07:38:10;;;;;;;17.63;9.48;;;1.70;99.90;;;;;;5070067;28;20020;-52
2022/03/18 07:40:36;;;;;;;16.10;9.27;;;1.80;99.90;;;;;;5070224;28;20032;-52
2022/03/18 07:43:02;;;;;;;15.65;8.27;;;1.80;99.90;;;;;;5069947;28;20048;-49
2022/03/18 07:45:30;;;;;;;14.77;8.48;;;1.90;99.90;;;;;;5069881;28;20020;-47
2022/03/18 07:48:01;;;;;;;15.82;9.20;;;1.90;99.90;;;;;;5069771;28;20046;-50
2022/03/18 07:50:28;;;;;;;13.85;8.95;;;2.00;99.90;;;;;;5070016;28;20033;-47
2022/03/18 07:52:56;;;;;;;13.98;9.05;;;2.10;99.90;;;;;;5069609;28;20030;-52
2022/03/18 07:55:24;;;;;;;16.88;9.40;;;2.20;99.90;;;;;;5051045;28;20028;-53
2022/03/18 07:57:51;;;;;;;20.08;11.25;;;2.40;99.90;;;;;;5069373;28;20074;-54
2022/03/18 08:00:17;;;;;;;16.00;10.65;;;2.50;99.90;;;;;;5069876;28;20031;-50
2022/03/18 08:02:45;;;;;;;12.05;9.40;;;2.60;99.90;;;;;;5069788;28;20021;-51
2022/03/18 08:05:12;;;;;;;16.25;9.90;;;2.60;99.90;;;;;;5069529;28;20021;-53
2022/03/18 08:07:38;;;;;;;24.30;10.40;;;2.80;99.90;;;;;;5069333;28;20132;-52
2022/03/18 08:10:05;;;;;;;19.85;10.55;;;2.90;99.90;;;;;;5069012;28;20054;-50
2022/03/18 08:12:32;;;;;;;22.08;11.07;;;3.10;99.90;;;;;;5051393;28;20063;-52
2022/03/18 08:14:59;;;;;;;20.42;11.23;;;3.30;99.90;;;;;;5069331;28;20025;-52
2022/03/18 08:17:25;;;;;;;20.17;10.32;;;3.50;99.90;;;;;;5069438;28;20032;-49
2022/03/18 08:19:51;;;;;;;20.80;11.40;;;3.70;99.90;;;;;;5069266;28;20020;-50
2022/03/18 08:22:20;;;;;;;15.38;11.48;;;3.90;99.90;;;;;;5068898;28;20029;-51
2022/03/18 08:24:46;;;;;;;17.42;11.07;;;4.10;99.90;;;;;;5069332;28;20029;-49
2022/03/18 08:27:11;;;;;;;20.60;11.93;;;4.30;99.90;;;;;;5069213;28;20024;-51
2022/03/18 08:29:38;;;;;;;17.83;11.88;;;4.50;99.90;;;;;;5069430;28;20021;-51
2022/03/18 08:32:05;;;;;;;19.95;12.00;;;4.70;99.90;;;;;;5068618;28;20029;-52
2022/03/18 08:34:31;;;;;;;22.02;11.82;;;4.90;99.90;;;;;;5051792;28;20021;-52
2022/03/18 08:36:56;;;;;;;24.00;9.65;;;5.10;99.90;;;;;;5068290;28;20055;-54
2022/03/18 08:39:22;;;;;;;12.27;8.10;;;5.30;99.90;;;;;;5068817;28;20035;-53
2022/03/18 08:41:47;;;;;;;14.02;7.65;;;5.50;99.90;;;;;;5069161;28;20036;-54
2022/03/18 08:44:14;;;;;;;10.02;6.70;;;5.70;99.90;;;;;;5068533;28;20431;-53
2022/03/18 08:46:39;;;;;;;11.80;6.20;;;5.90;99.90;;;;;;5069956;28;20024;-52
2022/03/18 08:49:05;;;;;;;9.90;6.20;;;6.10;99.90;;;;;;5073166;28;20028;-53
2022/03/18 08:51:31;;;;;;;10.52;6.50;;;6.30;99.90;;;;;;5073032;28;20476;-50
2022/03/18 08:53:56;;;;;;;13.57;6.68;;;6.50;99.90;;;;;;5072489;28;20123;-53
2022/03/18 08:56:22;;;;;;;12.05;6.88;;;6.70;99.90;;;;;;5072938;28;20032;-52
2022/03/18 08:58:49;;;;;;;10.77;6.05;;;6.90;99.90;;;;;;5072967;28;20059;-50
2022/03/18 09:01:14;;;;;;;13.18;6.22;;;7.10;99.90;;;;;;5072426;28;20028;-53
2022/03/18 09:03:41;;;;;;;12.55;6.90;;;7.30;99.90;;;;;;5072892;28;20494;-53
2022/03/18 09:06:07;;;;;;;11.88;6.38;;;7.40;99.90;;;;;;5072465;28;20028;-51
2022/03/18 09:08:32;;;;;;;11.20;6.10;;;7.60;99.90;;;;;;5072771;28;20556;-53
2022/03/18 09:10:58;;;;;;;10.68;6.30;;;7.70;99.90;;;;;;5073187;28;20029;-54
2022/03/18 09:13:23;;;;;;;13.30;7.35;;;7.90;99.90;;;;;;5072871;28;20515;-53
2022/03/18 09:15:50;;;;;;;12.45;6.30;;;8.10;99.90;;;;;;5072535;28;20074;-54
2022/03/18 09:18:16;;;;;;;16.40;6.63;;;8.10;99.90;;;;;;5073035;28;20108;-55
2022/03/18 09:20:42;;;;;;;12.35;6.03;;;8.30;99.90;;;;;;5053967;28;20036;-55
2022/03/18 09:23:08;;;;;;;10.88;6.75;;;8.40;99.90;;;;;;5072602;28;20025;-53
2022/03/18 09:25:35;;;;;;;9.85;6.25;;;8.50;99.90;;;;;;5072347;28;20500;-52
2022/03/18 09:28:00;;;;;;;14.52;5.97;;;8.60;99.90;;;;;;5072892;28;20067;-52
2022/03/18 09:30:26;;;;;;;14.60;6.93;;;8.80;99.90;;;;;;5071982;28;20056;-50
2022/03/18 09:32:52;;;;;;;14.02;7.35;;;8.90;99.90;;;;;;5072159;28;20051;-49
2022/03/18 09:35:17;;;;;;;9.65;6.28;;;9.10;99.90;;;;;;5071630;28;20037;-53
2022/03/18 09:37:44;;;;;;;13.25;6.20;;;9.10;99.90;;;;;;5072500;28;20032;-51
2022/03/18 09:40:11;;;;;;;16.63;7.25;;;9.30;99.90;;;;;;5072040;28;20031;-53
2022/03/18 09:42:56;;;;;;;12.05;5.80;;;9.40;99.90;;;;;;5072115;28;20020;-49
2022/03/18 09:45:24;;;;;;;12.10;6.70;;;9.60;99.90;;;;;;5072103;28;20027;-52
2022/03/18 09:47:51;;;;;;;12.05;5.68;;;9.60;99.90;;;;;;5072099;28;20103;-48
2022/03/18 09:50:17;;;;;;;9.95;6.50;;;9.60;99.90;;;;;;5072387;28;20032;-55
2022/03/18 09:52:44;;;;;;;9.85;6.05;;;9.70;99.90;;;;;;5071805;28;20135;-51
2022/03/18 09:55:10;;;;;;;12.27;5.63;;;9.80;99.90;;;;;;5054634;28;20112;-53
2022/03/18 09:57:36;;;;;;;12.68;6.78;;;9.90;99.90;;;;;;5077504;28;20028;-53
2022/03/18 10:00:01;;;;;;;12.75;6.82;;;10.10;99.90;;;;;;5072109;28;20063;-54
2022/03/18 10:02:33;;;;;;;16.52;6.07;;;10.20;99.90;;;;;;5070290;28;20029;-52
2022/03/18 10:05:01;;;;;;;12.32;7.03;;;10.30;99.90;;;;;;5078338;28;20024;-55
2022/03/18 10:07:29;;;;;;;10.43;6.35;;;10.40;99.90;;;;;;5058900;28;20402;-51
2022/03/18 10:10:15;;;;;;;10.98;6.53;;;10.50;99.90;;;;;;5095047;22;20056;-49
2022/03/18 10:12:42;;;;;;;9.98;5.70;;;10.70;99.90;;;;;;5070700;28;20020;-52
2022/03/18 10:15:16;;;;;;;13.68;5.88;;;10.70;99.90;;;;;;5071530;28;20157;-51
2022/03/18 10:17:49;;;;;;;13.63;5.43;;;10.90;99.90;;;;;;5070848;28;20506;-50
2022/03/18 10:20:27;;;;;;;15.25;6.50;;;10.80;99.90;;;;;;5071478;28;20025;-52
2022/03/18 10:22:55;;;;;;;15.60;6.88;;;10.90;99.90;;;;;;5071600;28;20025;-52
2022/03/18 10:25:37;;;;;;;17.00;6.18;;;11.00;99.90;;;;;;5071557;28;20507;-51
2022/03/18 10:28:04;;;;;;;12.93;5.88;;;11.10;99.90;;;;;;5071818;28;20101;-50
2022/03/18 10:30:31;;;;;;;14.60;6.32;;;11.20;99.90;;;;;;5072096;28;20043;-52
2022/03/18 10:32:57;;;;;;;11.10;5.57;;;11.20;99.90;;;;;;5069305;28;20078;-51
2022/03/18 10:38:33;;;;;;;16.58;7.38;;;11.30;99.90;;;;;;5070000;28;20035;-51
2022/03/18 10:41:04;;;;;;;10.43;5.82;;;11.40;99.90;;;;;;5054299;28;20519;-52
2022/03/18 10:43:55;;;;;;;10.50;6.32;;;11.50;99.90;;;;;;5070820;28;20031;-52
2022/03/18 10:46:22;;;;;;;15.70;5.90;;;11.60;99.90;;;;;;5033709;28;20044;-54
2022/03/18 10:49:04;;;;;;;8.90;6.10;;;11.70;99.90;;;;;;5070219;28;20036;-53
2022/03/18 10:51:30;;;;;;;13.70;5.55;;;11.70;99.90;;;;;;5071227;28;20032;-54
2022/03/18 10:53:56;;;;;;;10.68;5.35;;;11.60;99.90;;;;;;5070932;28;20059;-52
2022/03/18 10:56:23;;;;;;;10.65;5.43;;;11.60;99.90;;;;;;5070591;28;20044;-52
2022/03/18 10:58:48;;;;;;;15.55;6.15;;;11.70;99.90;;;;;;5070671;28;20040;-50
2022/03/18 11:01:15;;;;;;;14.38;6.20;;;11.80;99.90;;;;;;5070687;28;20033;-52
2022/03/18 11:03:42;;;;;;;8.93;5.72;;;11.90;99.90;;;;;;5070765;28;20016;-52
2022/03/18 11:06:09;;;;;;;12.07;5.15;;;11.90;99.90;;;;;;5070333;28;20028;-52
2022/03/18 11:08:40;;;;;;;10.10;6.30;;;11.90;99.90;;;;;;5070942;28;20040;-51
2022/03/18 11:11:17;;;;;;;10.40;5.07;;;12.10;99.90;;;;;;5070494;28;20029;-51
2022/03/18 11:14:02;;;;;;;9.65;5.18;;;12.20;99.90;;;;;;5052995;28;20028;-55
2022/03/18 11:16:31;;;;;;;17.70;5.38;;;12.30;99.90;;;;;;5070537;28;20412;-51
2022/03/18 11:18:58;;;;;;;12.07;5.18;;;12.30;99.90;;;;;;5071232;28;20028;-55
2022/03/18 11:21:35;;;;;;;10.38;5.68;;;12.40;99.90;;;;;;5070701;28;20031;-52
2022/03/18 11:24:03;;;;;;;16.88;7.90;;;12.50;99.90;;;;;;5069940;28;20074;-53
2022/03/18 11:26:31;;;;;;;10.05;5.00;;;12.50;99.90;;;;;;5069598;28;20024;-52
2022/03/18 11:29:08;;;;;;;14.43;5.38;;;12.60;99.90;;;;;;5070384;28;20025;-51
2022/03/18 11:31:34;;;;;;;10.27;5.47;;;12.70;99.90;;;;;;5070579;28;20442;-50
2022/03/18 11:34:17;;;;;;;10.23;4.30;;;12.70;99.90;;;;;;5069977;28;20025;-52
2022/03/18 11:37:11;;;;;;;8.75;4.47;;;12.80;99.90;;;;;;5070701;28;20025;-52
2022/03/18 11:39:38;;;;;;;10.43;4.65;;;12.90;99.90;;;;;;5060879;28;20040;-51
2022/03/18 11:42:09;;;;;;;11.88;4.35;;;12.90;99.90;;;;;;5069940;28;20024;-53
2022/03/18 11:44:37;;;;;;;8.77;4.03;;;12.90;99.90;;;;;;5070203;28;20476;-52
2022/03/18 11:47:31;;;;;;;11.93;4.47;;;12.90;99.90;;;;;;5070630;28;20021;-51
2022/03/18 11:49:57;;;;;;;10.25;4.18;;;12.90;99.90;;;;;;5070406;28;20021;-51
2022/03/18 11:52:24;;;;;;;10.25;4.65;;;12.90;99.90;;;;;;5070017;28;20024;-55
2022/03/18 11:54:53;;;;;;;7.50;3.72;;;12.90;99.90;;;;;;5070040;28;20025;-50
2022/03/18 11:57:33;;;;;;;7.20;3.88;;;12.90;99.90;;;;;;5069763;28;20036;-50
2022/03/18 12:00:05;;;;;;;6.05;4.18;;;12.90;99.90;;;;;;5068766;28;20032;-55
2022/03/18 12:02:41;;;;;;;8.48;4.07;;;13.00;99.90;;;;;;5069870;28;20017;-51
2022/03/18 12:05:07;;;;;;;8.18;3.75;;;13.00;99.90;;;;;;5069821;28;20140;-52
2022/03/18 12:07:47;;;;;;;8.77;4.53;;;13.10;99.90;;;;;;5071390;28;20029;-51
2022/03/18 12:10:14;;;;;;;7.22;4.20;;;13.20;99.90;;;;;;5069572;28;20492;-54
2022/03/18 12:12:45;;;;;;;9.65;3.97;;;13.20;99.90;;;;;;5069458;28;20504;-52
2022/03/18 12:15:17;;;;;;;10.52;4.72;;;13.30;99.90;;;;;;5069547;28;20645;-51
2022/03/18 12:17:45;;;;;;;8.93;4.75;;;13.10;99.90;;;;;;5069966;28;20025;-53
2022/03/18 12:20:18;;;;;;;7.43;3.33;;;13.20;99.90;;;;;;5056213;28;20024;-53
2022/03/18 12:22:44;;;;;;;10.50;4.10;;;13.10;99.90;;;;;;5069289;28;20028;-54
2022/03/18 12:25:10;;;;;;;10.18;4.07;;;13.20;99.90;;;;;;5069492;28;20488;-53
2022/03/18 12:27:38;;;;;;;8.98;3.85;;;13.20;99.90;;;;;;5069972;28;20024;-52
2022/03/18 12:30:41;;;;;;;9.52;4.18;;;13.20;99.90;;;;;;5069655;28;20108;-53
2022/03/18 12:33:10;;;;;;;5.00;2.78;;;13.40;99.90;;;;;;4988100;28;20023;-51
2022/03/18 12:35:43;;;;;;;7.40;3.10;;;13.40;99.90;;;;;;5035902;28;20520;-50
2022/03/18 12:38:17;;;;;;;8.32;2.63;;;13.30;99.90;;;;;;5055858;28;20392;-54
2022/03/18 12:40:54;;;;;;;5.70;2.80;;;13.10;99.90;;;;;;5069312;28;20120;-52
2022/03/18 12:43:19;;;;;;;10.75;2.80;;;12.90;99.90;;;;;;5069506;28;20649;-51
2022/03/18 12:45:45;;;;;;;7.05;3.55;;;13.00;99.90;;;;;;5069388;28;20108;-52
2022/03/18 12:48:15;;;;;;;8.40;4.22;;;13.10;99.90;;;;;;5069414;28;20032;-51
2022/03/18 12:50:55;;;;;;;10.10;4.30;;;13.20;99.90;;;;;;5069413;28;20031;-51
2022/03/18 12:53:34;;;;;;;5.63;3.20;;;13.30;99.90;;;;;;5068944;28;20029;-51
2022/03/18 12:56:00;;;;;;;7.63;3.50;;;13.40;99.90;;;;;;5068691;28;20032;-50
2022/03/18 12:58:28;;;;;;;9.52;3.67;;;13.40;99.90;;;;;;5069122;28;20028;-52